Time;durP1;ratioP1;P1;durP2;ratioP2;P2;SDS_P1;SDS_P2;PMS_P1;PMS_P2;Temp;Humidity;BMP_temperature;BMP_pressure;BME280_temperature;BME280_humidity;BME280_pressure;Samples;Min_cycle;Max_cycle;Signal;HPM_P1;HPM_P2
2022/06/18 03:01:40;;;;;;;2.30;0.73;;;18.10;65.50;;;;;;5682511;23;94071;-74
2022/06/18 03:04:06;;;;;;;2.25;0.80;;;18.10;65.80;;;;;;4916517;28;91938;-77
2022/06/18 03:06:33;;;;;;;10.25;2.35;;;18.10;66.00;;;;;;4916777;28;91229;-74
2022/06/18 03:08:59;;;;;;;3.38;0.60;;;18.00;66.00;;;;;;4922666;28;92803;-76
2022/06/18 03:14:13;;;;;;;2.28;0.82;;;17.80;66.00;;;;;;4919445;28;92839;-73
2022/06/18 03:16:39;;;;;;;2.90;0.90;;;17.60;66.20;;;;;;4927178;28;92815;-73
2022/06/18 03:19:06;;;;;;;2.80;1.00;;;17.50;67.50;;;;;;4918606;28;92637;-75
2022/06/18 03:21:38;;;;;;;2.85;1.15;;;17.40;68.20;;;;;;4910035;28;92585;-72
2022/06/18 03:24:04;;;;;;;3.22;0.98;;;17.40;68.70;;;;;;4916612;28;91869;-78
2022/06/18 03:26:31;;;;;;;2.20;1.05;;;17.30;68.50;;;;;;4910887;28;91537;-74
2022/06/18 03:28:57;;;;;;;2.80;1.02;;;17.30;68.50;;;;;;4920611;28;92433;-75
2022/06/18 03:31:23;;;;;;;3.60;0.80;;;17.50;67.60;;;;;;4923021;28;92792;-73
2022/06/18 03:33:49;;;;;;;5.50;0.70;;;17.50;67.60;;;;;;4912672;28;92045;-76
2022/06/18 03:36:19;;;;;;;4.78;1.00;;;17.50;67.90;;;;;;4913777;28;91868;-75
2022/06/18 03:38:46;;;;;;;3.95;0.80;;;17.40;68.60;;;;;;4912658;28;94187;-74
2022/06/18 03:41:13;;;;;;;4.72;0.98;;;17.30;68.90;;;;;;4911069;28;92919;-74
2022/06/18 03:43:38;;;;;;;3.08;0.95;;;17.30;69.00;;;;;;4917625;28;92174;-74
2022/06/18 03:46:08;;;;;;;3.78;1.08;;;17.40;70.10;;;;;;4917668;28;91989;-78
2022/06/18 03:48:45;;;;;;;2.33;0.80;;;17.60;68.20;;;;;;4919866;28;92184;-74
2022/06/18 03:51:12;;;;;;;2.40;0.85;;;17.80;69.80;;;;;;4917358;28;92109;-74
2022/06/18 03:53:38;;;;;;;2.53;0.80;;;18.00;67.30;;;;;;4919012;28;92121;-74
2022/06/18 03:56:04;;;;;;;2.00;0.52;;;18.10;66.50;;;;;;4917497;28;91422;-77
2022/06/18 03:58:30;;;;;;;2.40;1.02;;;18.20;66.10;;;;;;4914033;28;94178;-75
2022/06/18 04:00:56;;;;;;;2.17;1.02;;;18.20;66.90;;;;;;4918090;28;92047;-74
2022/06/18 04:03:22;;;;;;;2.63;0.80;;;18.20;66.40;;;;;;4849915;28;1258855;-74
2022/06/18 04:05:47;;;;;;;4.82;1.02;;;18.30;66.10;;;;;;4895280;28;92198;-75
2022/06/18 04:08:17;;;;;;;2.17;0.98;;;18.30;66.30;;;;;;4900375;28;93171;-74
2022/06/18 04:10:44;;;;;;;1.67;0.70;;;18.50;65.80;;;;;;4897051;28;92097;-74
2022/06/18 04:13:10;;;;;;;4.28;0.70;;;18.80;65.40;;;;;;4897425;28;92024;-75
2022/06/18 04:15:35;;;;;;;2.58;0.80;;;18.90;64.70;;;;;;4903528;28;92037;-74
2022/06/18 04:18:02;;;;;;;1.70;0.60;;;18.90;62.90;;;;;;4905228;28;92263;-75
2022/06/18 04:20:34;;;;;;;3.55;0.70;;;19.20;63.10;;;;;;4898900;28;92621;-75
2022/06/18 04:23:00;;;;;;;2.03;0.60;;;19.40;61.80;;;;;;4902637;28;92113;-73
2022/06/18 04:25:25;;;;;;;2.15;0.60;;;19.80;61.60;;;;;;4903599;28;92189;-74
2022/06/18 04:27:54;;;;;;;2.20;0.93;;;20.60;60.20;;;;;;4899227;28;93047;-74
2022/06/18 04:30:20;;;;;;;3.33;0.90;;;21.10;59.90;;;;;;4897710;28;93231;-75
2022/06/18 04:32:45;;;;;;;3.70;0.77;;;21.60;58.80;;;;;;4897771;28;92478;-75
2022/06/18 04:35:12;;;;;;;1.90;0.73;;;22.20;57.90;;;;;;4896465;28;91932;-75
2022/06/18 04:37:41;;;;;;;2.72;0.90;;;22.60;56.90;;;;;;4896809;28;92867;-76
2022/06/18 04:40:07;;;;;;;2.85;1.00;;;23.00;55.30;;;;;;4904465;28;92504;-75
2022/06/18 04:42:34;;;;;;;4.00;1.00;;;23.50;56.00;;;;;;4901518;28;92094;-81
2022/06/18 04:44:59;;;;;;;5.28;1.02;;;24.10;53.40;;;;;;4905448;28;91268;-76
2022/06/18 04:47:25;;;;;;;2.83;0.90;;;24.30;53.40;;;;;;4897412;28;92272;-75
2022/06/18 04:49:51;;;;;;;1.98;1.05;;;24.70;52.20;;;;;;4897281;28;92668;-75
2022/06/18 04:52:18;;;;;;;3.88;1.10;;;25.10;50.90;;;;;;4897114;28;93753;-72
2022/06/18 04:54:44;;;;;;;3.88;1.30;;;25.90;49.70;;;;;;4899399;28;93630;-72
2022/06/18 04:57:09;;;;;;;2.83;1.30;;;25.90;49.80;;;;;;4894447;28;92219;-73
2022/06/18 04:59:35;;;;;;;5.18;1.02;;;25.70;50.70;;;;;;4892746;28;92039;-74
2022/06/18 05:02:06;;;;;;;3.47;1.17;;;26.00;49.40;;;;;;4886501;28;93471;-75
2022/06/18 05:04:32;;;;;;;3.13;1.65;;;26.90;46.60;;;;;;4904372;28;92120;-72
2022/06/18 05:06:59;;;;;;;3.67;1.45;;;27.60;45.20;;;;;;4891374;28;93149;-73
2022/06/18 05:09:24;;;;;;;3.17;1.20;;;28.00;45.50;;;;;;4899714;28;92535;-72
2022/06/18 05:11:50;;;;;;;3.30;1.17;;;28.20;44.30;;;;;;4901052;28;92220;-72
2022/06/18 05:14:16;;;;;;;2.80;1.20;;;27.20;46.00;;;;;;4899301;28;92368;-72
2022/06/18 05:16:43;;;;;;;5.97;1.10;;;26.30;47.70;;;;;;4898204;28;93602;-72
2022/06/18 05:19:23;;;;;;;2.10;1.15;;;26.10;49.00;;;;;;4899047;28;93141;-72
2022/06/18 05:21:49;;;;;;;2.42;1.08;;;27.10;47.70;;;;;;4897485;28;92013;-72
2022/06/18 05:24:15;;;;;;;3.97;1.75;;;27.80;46.10;;;;;;4895295;28;92063;-72
2022/06/18 05:26:46;;;;;;;4.20;1.13;;;27.40;46.10;;;;;;4899747;28;92404;-72
2022/06/18 05:29:12;;;;;;;3.90;1.30;;;28.30;44.90;;;;;;4893260;28;94143;-72
2022/06/18 05:31:38;;;;;;;2.17;1.38;;;29.40;44.20;;;;;;4898836;28;92099;-72
2022/06/18 05:34:04;;;;;;;3.47;1.02;;;30.20;42.20;;;;;;4899290;28;91322;-73
2022/06/18 05:36:30;;;;;;;5.28;1.40;;;30.50;42.60;;;;;;4895294;28;92277;-72
2022/06/18 05:38:57;;;;;;;3.42;1.17;;;31.30;42.20;;;;;;4895261;28;93043;-72
2022/06/18 05:41:23;;;;;;;4.70;1.65;;;31.70;42.30;;;;;;4897981;28;93149;-72
2022/06/18 05:43:50;;;;;;;2.97;1.67;;;31.90;41.50;;;;;;4900280;28;92081;-72
2022/06/18 05:46:15;;;;;;;2.33;1.25;;;31.90;40.70;;;;;;4900503;28;92716;-72
2022/06/18 05:48:41;;;;;;;3.40;1.92;;;32.40;40.60;;;;;;4897837;28;92271;-72
2022/06/18 05:51:08;;;;;;;5.57;1.55;;;32.70;38.20;;;;;;4896634;28;92642;-72
2022/06/18 05:53:33;;;;;;;2.78;2.17;;;32.70;40.10;;;;;;4894609;28;92295;-73
2022/06/18 05:55:59;;;;;;;2.97;1.65;;;33.20;40.30;;;;;;4898476;28;92602;-72
2022/06/18 05:58:25;;;;;;;4.13;1.58;;;33.90;38.40;;;;;;4895091;28;91551;-72
2022/06/18 06:00:51;;;;;;;2.83;1.90;;;34.20;37.60;;;;;;4898065;28;92101;-72
2022/06/18 06:03:16;;;;;;;4.43;1.27;;;34.90;37.80;;;;;;4895403;28;92077;-72
2022/06/18 06:05:42;;;;;;;3.03;1.67;;;35.40;37.40;;;;;;4898156;28;93593;-71
2022/06/18 06:08:11;;;;;;;4.38;1.70;;;35.60;36.50;;;;;;4896415;28;93091;-72
2022/06/18 06:13:22;;;;;;;8.18;1.85;;;35.50;35.80;;;;;;4892811;28;92021;-72
2022/06/18 06:15:49;;;;;;;4.00;1.70;;;35.30;36.30;;;;;;4893673;28;93214;-72
2022/06/18 06:18:18;;;;;;;7.15;1.77;;;36.00;35.50;;;;;;4893759;28;92180;-72
2022/06/18 06:20:47;;;;;;;3.08;2.05;;;36.40;34.10;;;;;;4893957;28;92160;-70
2022/06/18 06:23:14;;;;;;;8.18;2.30;;;35.40;35.60;;;;;;4893046;28;91503;-70
2022/06/18 06:25:41;;;;;;;3.78;1.70;;;36.50;35.20;;;;;;4893366;28;92244;-70
2022/06/18 06:28:11;;;;;;;3.90;2.00;;;37.30;34.50;;;;;;4893841;28;93405;-70
2022/06/18 06:30:38;;;;;;;3.15;1.73;;;37.40;33.70;;;;;;4893686;28;92946;-71
2022/06/18 06:33:04;;;;;;;5.40;2.00;;;37.60;33.60;;;;;;4894586;28;92324;-73
2022/06/18 06:35:30;;;;;;;3.28;1.83;;;37.00;34.30;;;;;;4895600;28;92547;-71
2022/06/18 06:37:55;;;;;;;3.95;1.77;;;37.40;35.10;;;;;;4897188;28;92329;-73
2022/06/18 06:40:21;;;;;;;3.25;1.77;;;38.40;33.50;;;;;;4893466;28;93800;-73
2022/06/18 06:42:49;;;;;;;3.92;1.50;;;39.30;32.90;;;;;;4896997;28;92055;-72
2022/06/18 06:45:17;;;;;;;;;;;38.90;33.40;;;;;;4897568;28;93147;-72
2022/06/18 06:47:43;;;;;;;4.55;2.05;;;39.50;31.90;;;;;;4898356;28;91609;-72
2022/06/18 06:50:11;;;;;;;4.35;2.00;;;40.00;33.10;;;;;;4898288;28;92605;-71
2022/06/18 06:52:37;;;;;;;2.88;2.45;;;40.50;32.10;;;;;;4897893;28;92033;-72
2022/06/18 06:57:50;;;;;;;4.45;2.13;;;42.10;31.40;;;;;;4885095;28;92985;-73
2022/06/18 07:00:16;;;;;;;4.47;2.55;;;42.60;32.80;;;;;;4897492;28;91963;-72
2022/06/18 07:02:43;;;;;;;4.03;3.30;;;43.10;33.10;;;;;;4896971;28;92442;-72
2022/06/18 07:05:12;;;;;;;8.68;2.88;;;43.50;33.30;;;;;;4884366;28;92412;-71
2022/06/18 07:07:37;;;;;;;2.83;2.58;;;43.90;32.70;;;;;;4896923;28;92564;-73
2022/06/18 07:10:03;;;;;;;3.65;3.05;;;44.20;32.90;;;;;;4895343;28;92020;-72
2022/06/18 07:12:29;;;;;;;5.40;2.80;;;43.50;33.30;;;;;;4897958;28;91337;-74
2022/06/18 07:14:55;;;;;;;3.50;2.85;;;43.40;33.00;;;;;;4896777;28;92752;-72
2022/06/18 07:17:22;;;;;;;5.47;4.00;;;43.40;33.40;;;;;;4896709;28;92071;-73
2022/06/18 07:19:47;;;;;;;3.90;3.35;;;43.90;32.20;;;;;;4897046;28;93199;-73
2022/06/18 07:22:13;;;;;;;4.72;4.20;;;44.20;32.60;;;;;;4898496;28;92034;-73
2022/06/18 07:24:40;;;;;;;3.92;3.17;;;43.70;33.50;;;;;;4898906;28;92886;-72
2022/06/18 07:27:06;;;;;;;5.25;3.50;;;43.70;32.90;;;;;;4898829;28;92008;-73
2022/06/18 07:29:32;;;;;;;5.10;3.30;;;44.00;32.90;;;;;;4898296;28;92089;-73
2022/06/18 07:32:11;;;;;;;4.35;3.28;;;45.00;31.90;;;;;;4897563;28;91997;-74
2022/06/18 07:34:37;;;;;;;3.67;2.92;;;45.40;32.60;;;;;;4896853;28;93000;-71
2022/06/18 07:37:03;;;;;;;4.85;2.80;;;45.20;31.90;;;;;;4897286;28;91483;-72
2022/06/18 07:39:29;;;;;;;5.07;3.45;;;44.50;32.90;;;;;;4897273;28;92144;-72
2022/06/18 07:41:55;;;;;;;4.07;3.30;;;45.40;31.70;;;;;;4896599;28;92547;-72
2022/06/18 07:44:23;;;;;;;4.78;4.38;;;45.60;31.10;;;;;;4899326;28;94605;-75
2022/06/18 07:46:49;;;;;;;5.82;3.35;;;45.60;31.40;;;;;;4899998;28;93730;-73
2022/06/18 07:49:18;;;;;;;4.88;3.40;;;45.10;33.00;;;;;;4899975;28;91962;-72
2022/06/18 07:51:44;;;;;;;4.72;4.15;;;45.10;32.20;;;;;;4899912;28;92048;-75
2022/06/18 07:54:14;;;;;;;4.70;4.03;;;45.70;32.20;;;;;;4899804;28;91997;-76
2022/06/18 07:56:40;;;;;;;5.47;4.25;;;46.40;31.20;;;;;;4900210;28;92304;-74
2022/06/18 07:59:06;;;;;;;4.68;4.25;;;46.90;31.10;;;;;;4901025;28;91938;-74
2022/06/18 08:01:31;;;;;;;4.38;3.85;;;47.00;30.60;;;;;;4899750;28;91561;-72
2022/06/18 08:03:57;;;;;;;7.75;4.25;;;47.00;30.60;;;;;;4895459;28;92231;-72
2022/06/18 08:06:23;;;;;;;3.90;3.45;;;46.90;30.50;;;;;;4892125;28;92189;-72
2022/06/18 08:08:48;;;;;;;6.90;5.25;;;47.80;31.20;;;;;;4899606;28;93081;-72
2022/06/18 08:11:17;;;;;;;5.30;3.70;;;48.20;29.50;;;;;;4902371;28;92045;-72
2022/06/18 08:13:44;;;;;;;6.28;5.40;;;48.20;29.50;;;;;;4901485;28;92698;-72
2022/06/18 08:16:13;;;;;;;5.82;5.18;;;48.50;29.70;;;;;;4900365;28;92468;-72
2022/06/18 08:18:39;;;;;;;6.38;4.78;;;48.80;30.00;;;;;;4899909;28;92437;-72
2022/06/18 08:21:13;;;;;;;5.97;4.30;;;49.10;28.90;;;;;;4899938;28;92194;-72
2022/06/18 08:23:39;;;;;;;6.20;4.95;;;49.10;29.30;;;;;;4899573;28;92426;-72
2022/06/18 08:26:06;;;;;;;4.15;3.75;;;49.90;27.60;;;;;;4900259;28;91909;-73
2022/06/18 08:28:32;;;;;;;4.43;4.03;;;49.70;28.10;;;;;;4899901;28;92530;-73
2022/06/18 08:31:00;;;;;;;6.05;5.53;;;49.70;27.60;;;;;;4900090;28;92115;-73
2022/06/18 08:33:25;;;;;;;8.70;4.75;;;49.30;26.50;;;;;;4899220;28;93521;-73
2022/06/18 08:35:51;;;;;;;8.75;5.40;;;49.60;27.80;;;;;;4899691;28;92115;-72
2022/06/18 08:38:17;;;;;;;5.22;4.72;;;50.00;27.00;;;;;;4900167;28;92140;-73
2022/06/18 08:40:55;;;;;;;5.70;4.43;;;50.10;27.10;;;;;;4896900;28;92024;-73
2022/06/18 08:43:42;;;;;;;6.88;4.32;;;50.10;27.40;;;;;;4884146;28;92121;-74
2022/06/18 08:46:23;;;;;;;4.35;3.50;;;49.70;27.30;;;;;;4881787;28;94106;-73
2022/06/18 08:49:07;;;;;;;5.22;4.75;;;50.00;26.90;;;;;;4900329;28;92008;-72
2022/06/18 08:52:02;;;;;;;6.30;5.75;;;50.80;26.20;;;;;;4894933;28;91236;-73
2022/06/18 08:54:43;;;;;;;6.45;5.30;;;49.70;27.00;;;;;;4848436;28;92271;-73
2022/06/18 08:57:47;;;;;;;7.03;6.32;;;49.50;26.60;;;;;;4899561;28;92096;-73
2022/06/18 09:00:27;;;;;;;7.47;3.83;;;49.40;26.10;;;;;;4890855;28;93045;-73
2022/06/18 09:03:10;;;;;;;7.68;6.20;;;49.70;26.70;;;;;;4898871;28;92070;-73
2022/06/18 09:06:02;;;;;;;5.70;4.95;;;50.40;26.40;;;;;;4899406;28;92578;-73
2022/06/18 09:09:02;;;;;;;5.68;5.15;;;51.00;26.00;;;;;;4902576;28;92786;-73
2022/06/18 09:11:30;;;;;;;5.97;5.35;;;51.70;26.10;;;;;;4899662;28;92108;-73
2022/06/18 09:14:01;;;;;;;6.25;5.63;;;51.50;26.10;;;;;;4884215;28;92069;-73
2022/06/18 09:16:37;;;;;;;6.60;6.05;;;50.80;28.60;;;;;;4899216;28;93697;-73
2022/06/18 09:19:07;;;;;;;6.78;6.18;;;51.00;29.50;;;;;;4900060;28;92563;-73
2022/06/18 09:21:53;;;;;;;7.97;7.03;;;50.30;29.40;;;;;;4899416;28;91988;-73
2022/06/18 09:24:31;;;;;;;6.25;5.65;;;50.70;29.10;;;;;;4903281;28;92101;-73
2022/06/18 09:27:11;;;;;;;7.75;6.95;;;50.90;29.60;;;;;;4898698;28;94140;-73
2022/06/18 09:29:48;;;;;;;7.57;5.95;;;51.30;29.10;;;;;;4899053;28;92959;-74
2022/06/18 09:32:32;;;;;;;6.85;6.18;;;50.30;29.00;;;;;;4892838;28;91929;-73
2022/06/18 09:35:01;;;;;;;6.88;6.28;;;50.10;28.70;;;;;;4897530;28;92548;-73
2022/06/18 09:37:35;;;;;;;8.18;6.88;;;50.50;28.30;;;;;;4898650;28;92483;-73
2022/06/18 09:40:05;;;;;;;5.75;5.25;;;50.80;28.00;;;;;;4899022;28;92241;-73
2022/06/18 09:42:42;;;;;;;8.13;5.53;;;50.40;29.20;;;;;;4911518;28;92029;-73
2022/06/18 09:45:18;;;;;;;5.57;5.03;;;50.10;28.30;;;;;;4896518;28;91423;-73
2022/06/18 09:47:47;;;;;;;5.72;4.38;;;50.00;29.00;;;;;;4898542;28;92076;-73
2022/06/18 09:50:39;;;;;;;4.97;4.30;;;50.30;28.90;;;;;;4898624;28;92013;-73
2022/06/18 09:53:23;;;;;;;5.70;5.15;;;51.00;28.30;;;;;;4882570;28;93608;-73
2022/06/18 09:55:53;;;;;;;5.88;4.88;;;51.10;28.20;;;;;;4898680;28;91974;-73
2022/06/18 09:58:28;;;;;;;6.72;5.47;;;50.90;28.50;;;;;;4895129;28;92811;-74
2022/06/18 10:00:56;;;;;;;4.90;4.47;;;50.60;28.90;;;;;;4895354;28;92339;-74
2022/06/18 10:09:03;;;;;;;5.60;5.05;;;49.20;29.00;;;;;;4894991;28;92741;-74
2022/06/18 10:11:29;;;;;;;5.80;5.28;;;48.20;29.90;;;;;;4898012;28;91219;-74
2022/06/18 10:13:59;;;;;;;5.80;5.13;;;46.60;30.00;;;;;;4898076;28;92548;-74
2022/06/18 10:17:02;;;;;;;4.50;3.78;;;44.60;31.60;;;;;;4895956;28;92041;-73
2022/06/18 10:19:34;;;;;;;3.67;3.08;;;42.00;34.90;;;;;;4896848;28;93583;-74
2022/06/18 10:22:25;;;;;;;4.65;4.25;;;39.80;37.50;;;;;;4897289;28;93387;-73
2022/06/18 10:25:24;;;;;;;4.63;2.40;;;38.70;39.60;;;;;;4897940;28;92149;-73
2022/06/18 10:28:04;;;;;;;5.00;3.22;;;37.80;40.40;;;;;;4897538;28;91952;-73
2022/06/18 10:31:01;;;;;;;4.20;2.70;;;37.10;43.20;;;;;;4897285;28;92257;-74
2022/06/18 10:33:32;;;;;;;4.07;3.22;;;36.20;44.00;;;;;;4841729;28;92883;-73
2022/06/18 10:36:22;;;;;;;2.85;2.55;;;35.40;44.30;;;;;;4893373;28;92176;-73
2022/06/18 10:38:50;;;;;;;4.13;1.85;;;34.80;46.90;;;;;;4898235;28;91374;-72
2022/06/18 10:41:57;;;;;;;3.42;2.25;;;34.60;47.00;;;;;;4897168;28;93230;-72
2022/06/18 10:44:41;;;;;;;3.50;2.15;;;34.70;44.80;;;;;;4886156;28;92728;-75
2022/06/18 10:47:12;;;;;;;5.65;2.50;;;34.20;46.50;;;;;;4896488;28;93036;-74
2022/06/18 10:49:38;;;;;;;4.18;2.10;;;34.00;47.10;;;;;;4896748;28;92097;-73
2022/06/18 10:52:15;;;;;;;4.80;2.83;;;33.80;50.50;;;;;;4897266;28;93094;-73
2022/06/18 10:54:41;;;;;;;3.42;2.90;;;33.20;47.90;;;;;;4897265;28;92100;-73
2022/06/18 10:57:19;;;;;;;4.65;2.08;;;33.00;49.80;;;;;;4897408;28;92757;-72
2022/06/18 10:59:45;;;;;;;4.95;2.58;;;32.80;50.60;;;;;;4896559;28;91986;-73
2022/06/18 11:02:12;;;;;;;3.65;2.55;;;32.90;52.10;;;;;;4894534;28;92619;-72
2022/06/18 11:04:39;;;;;;;6.00;2.22;;;33.00;50.80;;;;;;4887732;28;91879;-73
2022/06/18 11:07:07;;;;;;;3.42;2.50;;;33.10;51.00;;;;;;4893036;28;92007;-74
2022/06/18 11:09:37;;;;;;;;;;;32.70;50.50;;;;;;4889449;28;92054;-72
2022/06/18 11:12:19;;;;;;;4.85;2.42;;;32.60;49.90;;;;;;4897660;28;93603;-72
2022/06/18 11:14:44;;;;;;;5.22;2.70;;;32.20;51.70;;;;;;4898038;28;92769;-73
2022/06/18 11:17:41;;;;;;;6.07;1.98;;;32.20;51.40;;;;;;4900726;28;92144;-72
2022/06/18 11:20:14;;;;;;;4.03;2.40;;;32.20;51.90;;;;;;4895539;28;93222;-72
2022/06/18 11:22:41;;;;;;;3.42;2.13;;;32.10;51.00;;;;;;4900148;28;92370;-73
2022/06/18 11:25:31;;;;;;;6.72;2.83;;;32.00;50.60;;;;;;4900159;28;92108;-73
2022/06/18 11:28:00;;;;;;;4.78;2.38;;;31.50;53.00;;;;;;4900125;28;92014;-73
2022/06/18 11:30:38;;;;;;;3.80;2.53;;;31.50;53.40;;;;;;4900274;28;91655;-73
2022/06/18 11:33:06;;;;;;;5.50;2.00;;;31.10;55.60;;;;;;4899315;28;92740;-72
2022/06/18 11:35:36;;;;;;;3.38;2.45;;;31.30;54.10;;;;;;4899602;28;92065;-73
2022/06/18 11:38:06;;;;;;;5.78;2.33;;;31.60;52.00;;;;;;4900108;28;93099;-72
2022/06/18 11:40:32;;;;;;;3.75;2.05;;;31.60;50.60;;;;;;4905926;28;91981;-72
2022/06/18 11:43:14;;;;;;;9.25;2.40;;;31.70;52.20;;;;;;4900744;28;92393;-73
2022/06/18 11:45:52;;;;;;;2.10;1.42;;;31.80;52.80;;;;;;4899053;28;92205;-73
2022/06/18 11:48:40;;;;;;;3.58;1.92;;;32.00;49.70;;;;;;4900279;28;91471;-73
2022/06/18 11:51:43;;;;;;;2.80;1.52;;;31.60;51.10;;;;;;4898306;28;92015;-73
2022/06/18 11:54:18;;;;;;;5.13;2.08;;;31.50;50.00;;;;;;4898864;28;93480;-72
2022/06/18 11:56:53;;;;;;;5.30;1.55;;;31.30;51.30;;;;;;4899989;28;92535;-74
2022/06/18 11:59:22;;;;;;;6.57;1.58;;;31.30;50.20;;;;;;4899730;28;92206;-72
2022/06/18 12:01:54;;;;;;;4.47;2.40;;;31.20;53.70;;;;;;4899646;28;92253;-74
2022/06/18 12:04:37;;;;;;;3.47;1.50;;;31.30;49.80;;;;;;4890785;28;93251;-72
2022/06/18 12:07:09;;;;;;;1.98;1.45;;;31.50;50.70;;;;;;4896915;28;92103;-72
2022/06/18 12:09:36;;;;;;;3.90;2.10;;;31.60;53.60;;;;;;4893467;28;92056;-73
2022/06/18 12:12:43;;;;;;;3.33;1.40;;;31.50;51.10;;;;;;4898247;28;92640;-73
2022/06/18 12:15:41;;;;;;;3.42;2.15;;;31.30;50.00;;;;;;4800605;29;92278;-73
2022/06/18 12:18:19;;;;;;;5.53;2.13;;;31.40;50.30;;;;;;4772635;29;92255;-73
2022/06/18 12:21:18;;;;;;;2.95;1.90;;;31.30;49.60;;;;;;4871859;28;92404;-73
2022/06/18 12:23:54;;;;;;;6.43;1.73;;;31.20;51.00;;;;;;4882444;28;91291;-72
2022/06/18 12:26:33;;;;;;;2.20;1.63;;;31.30;52.40;;;;;;4898335;28;93342;-73
2022/06/18 12:29:30;;;;;;;5.32;1.48;;;31.30;51.70;;;;;;4899203;28;92943;-73
2022/06/18 12:32:08;;;;;;;4.45;1.85;;;31.30;51.70;;;;;;4899775;28;92652;-73
2022/06/18 12:35:11;;;;;;;2.47;1.52;;;31.40;49.10;;;;;;4897417;28;91809;-73
2022/06/18 12:37:43;;;;;;;1.60;1.02;;;31.60;51.90;;;;;;4897572;28;92434;-75
2022/06/18 12:40:37;;;;;;;2.38;1.35;;;31.90;47.80;;;;;;4899140;28;92856;-73
2022/06/18 12:43:10;;;;;;;2.45;1.33;;;31.70;48.20;;;;;;4899036;28;92088;-73
2022/06/18 12:45:57;;;;;;;2.13;1.55;;;32.00;46.30;;;;;;4899516;28;92204;-73
2022/06/18 12:48:42;;;;;;;2.88;1.75;;;31.90;46.90;;;;;;4893646;28;93235;-73
2022/06/18 12:51:28;;;;;;;2.65;2.38;;;32.00;48.70;;;;;;4896596;28;92074;-74
2022/06/18 12:54:28;;;;;;;1.63;1.23;;;32.30;47.90;;;;;;4899086;28;92073;-73
2022/06/18 12:57:20;;;;;;;3.13;1.52;;;32.40;44.80;;;;;;4899544;28;92018;-73
2022/06/18 12:59:45;;;;;;;1.90;0.82;;;32.40;43.30;;;;;;4889655;28;93393;-73
2022/06/18 13:02:28;;;;;;;2.85;1.08;;;32.10;44.40;;;;;;4897199;28;93641;-73
2022/06/18 13:05:28;;;;;;;3.08;0.95;;;32.00;45.30;;;;;;4887663;28;91915;-74
2022/06/18 13:08:11;;;;;;;3.75;1.17;;;31.90;46.40;;;;;;4899182;28;92028;-73
2022/06/18 13:10:56;;;;;;;4.43;1.75;;;32.10;45.50;;;;;;4898377;28;92455;-73
2022/06/18 13:13:38;;;;;;;1.38;0.85;;;32.30;42.30;;;;;;4853183;28;94443;-73
2022/06/18 13:16:10;;;;;;;2.50;1.45;;;32.20;46.30;;;;;;4898714;28;91575;-73
2022/06/18 13:18:42;;;;;;;1.85;1.02;;;32.40;45.50;;;;;;4898699;28;91359;-73
2022/06/18 13:21:10;;;;;;;4.20;1.25;;;32.40;45.50;;;;;;4898438;28;92792;-78
2022/06/18 13:30:01;;;;;;;3.78;1.17;;;32.60;45.70;;;;;;4898870;28;92052;-72
2022/06/18 13:32:38;;;;;;;2.78;0.93;;;32.50;43.70;;;;;;4898217;28;93186;-73
2022/06/18 13:35:31;;;;;;;6.40;1.17;;;32.20;44.80;;;;;;4898184;28;92122;-73
2022/06/18 13:38:06;;;;;;;6.07;1.40;;;32.10;44.00;;;;;;4898138;28;92056;-73
2022/06/18 13:40:46;;;;;;;6.47;0.95;;;32.20;45.00;;;;;;4899061;28;92045;-73
2022/06/18 13:43:23;;;;;;;4.47;1.30;;;32.10;44.60;;;;;;4898094;28;92144;-73
2022/06/18 13:46:10;;;;;;;7.32;1.35;;;32.20;44.10;;;;;;4898526;28;92291;-73
2022/06/18 13:48:47;;;;;;;4.57;1.40;;;32.20;44.60;;;;;;4898170;28;92165;-72
2022/06/18 13:51:24;;;;;;;3.08;1.33;;;32.50;42.50;;;;;;4898227;28;92107;-73
2022/06/18 13:53:50;;;;;;;5.50;1.25;;;32.60;44.70;;;;;;4895759;28;92613;-72
2022/06/18 13:56:19;;;;;;;6.82;1.50;;;32.60;43.00;;;;;;4886600;28;93388;-73
2022/06/18 13:58:52;;;;;;;4.22;1.35;;;32.40;41.80;;;;;;4898494;28;91987;-72
2022/06/18 14:01:20;;;;;;;5.07;1.48;;;32.40;44.60;;;;;;4892482;28;92026;-74
2022/06/18 14:03:47;;;;;;;6.13;1.13;;;32.30;44.00;;;;;;4894518;28;92134;-74
2022/06/18 14:06:16;;;;;;;7.68;1.23;;;32.30;42.70;;;;;;4888249;28;92068;-73
2022/06/18 14:08:47;;;;;;;4.45;1.20;;;32.40;42.50;;;;;;4894784;28;92058;-74
2022/06/18 14:11:26;;;;;;;8.48;1.42;;;32.50;42.10;;;;;;4896968;28;91981;-73
2022/06/18 14:13:53;;;;;;;5.85;1.70;;;32.50;42.70;;;;;;4898593;28;91744;-72
2022/06/18 14:16:30;;;;;;;7.72;1.23;;;32.60;41.90;;;;;;4897648;28;92065;-72
2022/06/18 14:19:10;;;;;;;6.50;0.98;;;32.60;43.00;;;;;;4886007;28;92946;-75
2022/06/18 14:21:37;;;;;;;6.88;1.77;;;32.80;42.90;;;;;;4897533;28;92046;-72
2022/06/18 14:24:03;;;;;;;5.50;1.23;;;32.80;43.00;;;;;;4894552;28;92344;-73
2022/06/18 14:26:41;;;;;;;9.68;2.03;;;32.70;44.20;;;;;;4897085;28;93362;-72
2022/06/18 14:29:07;;;;;;;7.00;1.58;;;32.70;44.00;;;;;;4897012;28;92513;-72
2022/06/18 14:32:07;;;;;;;6.10;1.35;;;32.50;43.40;;;;;;4893461;28;92092;-72
2022/06/18 14:34:56;;;;;;;8.20;2.13;;;32.50;44.50;;;;;;4888905;28;92696;-72
2022/06/18 14:37:22;;;;;;;11.80;1.88;;;32.50;42.70;;;;;;4900771;28;91152;-72
2022/06/18 14:40:00;;;;;;;13.05;1.65;;;32.50;44.40;;;;;;4893712;28;92694;-73
2022/06/18 14:42:44;;;;;;;11.07;1.48;;;32.50;42.70;;;;;;4893744;28;92101;-72
2022/06/18 14:45:19;;;;;;;5.53;1.13;;;32.60;42.10;;;;;;4884323;28;93842;-74
2022/06/18 14:47:50;;;;;;;8.25;1.60;;;32.60;43.70;;;;;;4894542;28;93749;-72
2022/06/18 14:50:16;;;;;;;8.23;1.17;;;32.70;41.70;;;;;;4897506;28;92095;-72
2022/06/18 14:53:01;;;;;;;9.93;1.73;;;32.70;42.50;;;;;;4900837;28;92454;-73
2022/06/18 14:55:56;;;;;;;9.25;1.70;;;32.70;43.00;;;;;;4902101;28;93009;-73
2022/06/18 14:58:37;;;;;;;10.07;1.52;;;32.80;43.40;;;;;;4898474;28;92264;-74
2022/06/18 15:01:11;;;;;;;10.80;2.22;;;32.70;43.30;;;;;;4902153;28;92138;-74
2022/06/18 15:04:03;;;;;;;11.93;2.25;;;32.60;42.20;;;;;;4899882;28;91371;-75
2022/06/18 15:06:34;;;;;;;21.13;1.58;;;32.40;44.30;;;;;;4894783;28;92743;-75
2022/06/18 15:09:00;;;;;;;10.82;1.67;;;32.50;43.40;;;;;;4899917;28;92459;-74
2022/06/18 15:11:28;;;;;;;9.60;1.60;;;32.50;42.20;;;;;;4902462;28;92754;-75
2022/06/18 15:13:56;;;;;;;10.25;1.83;;;32.40;42.60;;;;;;4900230;28;92029;-73
2022/06/18 15:25:21;;;;;;;12.50;2.10;;;32.40;43.10;;;;;;4897393;28;92163;-74
2022/06/18 15:27:28;;;;;;;10.18;2.25;;;32.50;41.90;;;;;;4892759;28;93130;-74
2022/06/18 15:30:00;;;;;;;11.30;1.80;;;32.40;41.30;;;;;;4902249;28;92047;-74
2022/06/18 15:32:28;;;;;;;11.88;2.20;;;32.40;42.80;;;;;;4903068;28;91971;-74
2022/06/18 15:35:16;;;;;;;10.00;1.75;;;32.40;42.90;;;;;;4902061;28;92032;-74
2022/06/18 15:37:51;;;;;;;10.48;2.28;;;32.50;42.70;;;;;;4897989;28;94206;-75
2022/06/18 15:40:29;;;;;;;12.27;1.85;;;32.30;44.20;;;;;;4898081;28;93928;-74
2022/06/18 15:42:58;;;;;;;9.93;1.80;;;32.30;43.50;;;;;;4902212;28;92187;-74
2022/06/18 15:45:28;;;;;;;9.88;2.20;;;32.30;43.80;;;;;;4902614;28;92053;-74
2022/06/18 15:47:58;;;;;;;11.82;1.73;;;32.30;43.50;;;;;;4895868;28;92287;-74
2022/06/18 15:50:27;;;;;;;9.85;1.58;;;32.10;42.90;;;;;;4903350;28;92089;-74
2022/06/18 15:52:53;;;;;;;11.90;2.47;;;32.30;42.90;;;;;;4898571;28;91985;-76
2022/06/18 15:55:40;;;;;;;8.68;1.92;;;32.30;43.10;;;;;;4901187;28;91185;-74
2022/06/18 15:58:06;;;;;;;15.95;2.35;;;32.40;43.60;;;;;;4903400;28;92090;-74
2022/06/18 16:00:38;;;;;;;17.13;2.35;;;32.30;42.70;;;;;;4899669;28;93469;-74
2022/06/18 16:03:16;;;;;;;11.05;1.73;;;32.30;43.70;;;;;;4900020;28;93153;-75
2022/06/18 16:05:45;;;;;;;13.20;2.03;;;32.30;43.80;;;;;;4900927;28;92781;-74
2022/06/18 16:08:30;;;;;;;6.70;1.98;;;32.10;44.80;;;;;;4898968;28;92094;-74
2022/06/18 16:11:24;;;;;;;10.82;1.77;;;32.10;44.10;;;;;;4898597;28;92090;-75
2022/06/18 16:13:53;;;;;;;16.50;2.15;;;31.90;43.40;;;;;;4901153;28;92176;-74
2022/06/18 16:16:32;;;;;;;13.90;2.25;;;32.00;44.50;;;;;;4899158;28;92169;-75
2022/06/18 16:19:01;;;;;;;6.68;1.70;;;32.10;45.10;;;;;;4906918;28;92819;-74
2022/06/18 16:21:27;;;;;;;20.23;2.22;;;32.00;44.10;;;;;;4901471;28;91948;-74
2022/06/18 16:23:54;;;;;;;12.98;2.17;;;31.90;44.50;;;;;;4896165;28;92103;-74
2022/06/18 16:26:29;;;;;;;15.45;2.10;;;31.90;44.00;;;;;;4897999;28;91768;-74
2022/06/18 16:28:55;;;;;;;;;;;32.00;44.70;;;;;;4893207;28;93080;-75
2022/06/18 16:31:23;;;;;;;10.70;2.08;;;32.00;43.70;;;;;;4890263;28;92842;-74
2022/06/18 16:33:51;;;;;;;12.63;1.98;;;32.00;44.20;;;;;;4892264;28;92120;-74
2022/06/18 16:36:26;;;;;;;15.30;1.90;;;31.90;43.70;;;;;;4890734;28;91729;-74
2022/06/18 16:38:56;;;;;;;;;;;31.80;44.30;;;;;;4904256;28;92103;-74
2022/06/18 16:41:43;;;;;;;12.38;1.92;;;31.80;45.10;;;;;;4896677;28;91996;-74
2022/06/18 16:44:15;;;;;;;15.25;2.70;;;31.90;44.60;;;;;;4899592;28;91594;-74